Time;durP1;ratioP1;P1;durP2;ratioP2;P2;SDS_P1;SDS_P2;PMS_P1;PMS_P2;Temp;Humidity;BMP_temperature;BMP_pressure;BME280_temperature;BME280_humidity;BME280_pressure;Samples;Min_cycle;Max_cycle;Signal;HPM_P1;HPM_P2
2024/02/24 07:27:01;;;;;;;8.90;6.40;;;8.70;77.80;;;;;;5070102;27;20707;-85
2024/02/24 07:29:28;;;;;;;8.77;6.03;;;8.90;79.70;;;;;;4990288;28;20030;-83
2024/02/24 07:31:54;;;;;;;10.95;7.00;;;8.90;79.60;;;;;;5021030;28;20030;-80
2024/02/24 07:34:33;;;;;;;11.20;7.43;;;9.00;79.60;;;;;;5023197;28;20486;-80
2024/02/24 07:37:05;;;;;;;12.48;6.88;;;9.10;79.90;;;;;;5034875;28;20496;-79
2024/02/24 07:39:31;;;;;;;13.93;7.93;;;9.20;78.80;;;;;;5018862;28;20045;-84
2024/02/24 07:41:57;;;;;;;16.38;6.95;;;9.30;78.40;;;;;;4999929;28;20484;-77
2024/02/24 07:44:23;;;;;;;15.18;6.97;;;9.40;79.70;;;;;;5017044;28;20060;-78
2024/02/24 07:46:49;;;;;;;11.50;6.82;;;9.40;79.30;;;;;;5017997;28;20038;-79
2024/02/24 07:49:15;;;;;;;11.38;6.88;;;9.50;78.80;;;;;;5019578;28;20480;-79
2024/02/24 07:51:43;;;;;;;19.23;7.03;;;9.50;78.00;;;;;;5021811;28;20050;-78
2024/02/24 07:54:08;;;;;;;10.35;7.15;;;9.60;77.50;;;;;;5020939;28;20120;-80
2024/02/24 07:56:34;;;;;;;13.25;7.35;;;9.70;76.90;;;;;;5020900;28;20038;-80
2024/02/24 07:59:00;;;;;;;13.77;7.75;;;9.70;76.50;;;;;;5019762;28;21142;-82
2024/02/24 08:01:27;;;;;;;14.93;7.60;;;9.70;76.10;;;;;;5018862;28;20044;-81
2024/02/24 08:03:53;;;;;;;11.77;7.13;;;9.70;76.40;;;;;;4999629;28;20045;-81
2024/02/24 08:06:19;;;;;;;12.02;7.75;;;9.80;75.50;;;;;;5021711;28;20041;-81
2024/02/24 08:08:45;;;;;;;10.38;7.57;;;9.80;75.40;;;;;;5019332;28;20046;-86
2024/02/24 08:11:11;;;;;;;10.20;7.20;;;9.80;75.10;;;;;;5015969;28;20034;-80
2024/02/24 08:13:41;;;;;;;12.32;7.43;;;9.80;74.90;;;;;;5015425;28;20033;-81
2024/02/24 08:16:09;;;;;;;10.32;7.38;;;9.90;74.60;;;;;;5016577;28;20104;-81
2024/02/24 08:18:38;;;;;;;9.13;7.00;;;9.90;74.70;;;;;;5031395;28;20110;-81
2024/02/24 08:21:08;;;;;;;9.88;7.05;;;9.90;74.80;;;;;;5015840;28;20448;-80
2024/02/24 08:23:35;;;;;;;9.50;6.70;;;10.00;75.10;;;;;;5013087;28;20030;-81
2024/02/24 08:26:01;;;;;;;14.00;6.30;;;9.90;75.50;;;;;;5017081;28;20063;-81
2024/02/24 08:28:27;;;;;;;10.80;6.50;;;10.00;75.60;;;;;;5016346;28;20483;-81
2024/02/24 08:30:53;;;;;;;8.77;6.60;;;10.00;75.70;;;;;;5030430;28;20538;-81
2024/02/24 08:33:22;;;;;;;10.82;7.07;;;10.00;75.50;;;;;;5015622;28;20041;-81
2024/02/24 08:35:53;;;;;;;10.90;6.95;;;10.10;75.20;;;;;;5016528;28;20038;-81
2024/02/24 08:38:19;;;;;;;12.40;6.25;;;10.10;75.00;;;;;;5008168;28;20120;-81
2024/02/24 08:40:45;;;;;;;13.77;7.68;;;10.10;74.70;;;;;;5022573;28;20211;-81
2024/02/24 08:43:11;;;;;;;12.63;7.57;;;10.10;74.30;;;;;;5022497;28;20026;-81
2024/02/24 08:45:37;;;;;;;9.48;7.15;;;10.10;74.00;;;;;;5021766;28;20519;-81
2024/02/24 08:48:04;;;;;;;10.38;7.20;;;10.10;73.80;;;;;;5022827;28;20038;-81
2024/02/24 08:50:30;;;;;;;9.40;6.97;;;10.10;73.40;;;;;;5039958;28;20560;-81
2024/02/24 08:52:56;;;;;;;11.20;7.43;;;10.10;73.40;;;;;;5040016;28;20116;-81
2024/02/24 08:55:22;;;;;;;9.57;7.10;;;10.20;73.30;;;;;;5023656;28;20141;-82
2024/02/24 08:57:48;;;;;;;11.00;6.82;;;10.20;73.10;;;;;;5026465;28;20038;-81
2024/02/24 09:00:15;;;;;;;9.23;6.57;;;10.20;73.00;;;;;;5022555;28;20037;-81
2024/02/24 09:02:41;;;;;;;10.82;6.75;;;10.20;72.70;;;;;;5023710;28;21436;-80
2024/02/24 09:05:07;;;;;;;8.35;6.80;;;10.20;72.40;;;;;;5021224;28;20099;-80
2024/02/24 09:07:33;;;;;;;8.65;6.78;;;10.20;72.30;;;;;;5004453;28;20041;-81
2024/02/24 09:09:59;;;;;;;9.50;7.20;;;10.20;72.20;;;;;;5023846;28;20077;-82
2024/02/24 09:12:25;;;;;;;9.30;6.95;;;10.20;72.00;;;;;;5019410;28;20188;-81
2024/02/24 09:14:51;;;;;;;9.93;7.13;;;10.30;72.00;;;;;;5023138;28;20107;-82
2024/02/24 09:17:17;;;;;;;9.35;6.78;;;10.20;71.90;;;;;;5023366;28;20480;-81
2024/02/24 09:19:43;;;;;;;9.68;7.05;;;10.20;71.50;;;;;;5022818;28;20034;-81
2024/02/24 09:22:12;;;;;;;9.35;7.20;;;10.20;71.30;;;;;;5023337;28;20026;-81
2024/02/24 09:24:39;;;;;;;8.88;6.82;;;10.20;71.30;;;;;;5020859;28;20036;-80
2024/02/24 09:27:05;;;;;;;11.93;7.20;;;10.20;71.30;;;;;;5021167;28;20052;-79
2024/02/24 09:29:31;;;;;;;9.55;6.68;;;10.30;71.10;;;;;;5038114;28;20034;-82
2024/02/24 09:31:57;;;;;;;8.18;6.68;;;10.30;71.20;;;;;;5020000;28;20025;-82
2024/02/24 09:34:23;;;;;;;8.13;6.80;;;10.30;71.00;;;;;;5005587;28;20029;-80
2024/02/24 09:36:49;;;;;;;7.70;6.47;;;10.30;70.60;;;;;;5022485;28;20447;-81
2024/02/24 09:39:15;;;;;;;10.82;6.38;;;10.30;70.60;;;;;;5004363;28;20033;-82
2024/02/24 09:41:41;;;;;;;9.18;6.82;;;10.30;70.80;;;;;;5008301;28;21153;-80
2024/02/24 09:44:09;;;;;;;8.13;6.32;;;10.30;70.60;;;;;;5018995;28;20087;-81
2024/02/24 09:46:36;;;;;;;9.27;7.10;;;10.30;70.40;;;;;;5020395;28;20037;-81
2024/02/24 09:49:02;;;;;;;8.88;6.50;;;10.30;70.30;;;;;;5008431;28;20034;-82
2024/02/24 09:51:29;;;;;;;8.15;6.57;;;10.30;70.10;;;;;;5003496;28;20458;-82
2024/02/24 09:53:57;;;;;;;10.35;6.93;;;10.30;70.00;;;;;;5019720;28;20057;-82
2024/02/24 09:56:24;;;;;;;11.07;6.68;;;10.30;70.00;;;;;;5025524;28;20034;-82
2024/02/24 09:58:53;;;;;;;8.07;6.30;;;10.40;70.20;;;;;;5026781;28;20457;-82
2024/02/24 10:01:19;;;;;;;8.57;6.63;;;10.30;70.20;;;;;;5021595;28;20022;-81
2024/02/24 10:03:48;;;;;;;8.80;6.70;;;10.30;70.10;;;;;;5019888;28;20126;-81
2024/02/24 10:06:14;;;;;;;8.38;6.68;;;10.30;70.00;;;;;;5002243;28;21281;-81
2024/02/24 10:08:40;;;;;;;8.45;6.65;;;10.30;70.00;;;;;;5002280;28;20038;-81
2024/02/24 10:11:06;;;;;;;9.65;6.95;;;10.30;69.90;;;;;;5002127;28;20030;-81
2024/02/24 10:13:35;;;;;;;6.65;5.93;;;10.40;69.90;;;;;;5006097;28;20122;-81
2024/02/24 10:16:07;;;;;;;7.75;6.18;;;10.30;70.00;;;;;;5001074;28;20176;-81
2024/02/24 10:18:34;;;;;;;7.47;6.38;;;10.40;70.10;;;;;;5017760;28;21295;-81
2024/02/24 10:21:00;;;;;;;8.95;6.20;;;10.40;70.00;;;;;;5015627;28;20088;-81
2024/02/24 10:23:26;;;;;;;8.60;6.88;;;10.40;70.00;;;;;;5000180;28;20064;-82
2024/02/24 10:25:57;;;;;;;9.00;6.60;;;10.40;70.10;;;;;;5000844;28;20077;-82
2024/02/24 10:28:25;;;;;;;8.25;6.65;;;10.40;70.00;;;;;;5002449;28;20030;-81
2024/02/24 10:30:51;;;;;;;7.85;6.20;;;10.40;69.90;;;;;;4984643;28;20129;-82
2024/02/24 10:33:18;;;;;;;7.90;6.10;;;10.40;69.90;;;;;;4983017;28;20132;-81
2024/02/24 10:35:46;;;;;;;7.13;6.03;;;10.40;69.80;;;;;;5001646;28;20038;-82
2024/02/24 10:38:13;;;;;;;7.80;6.30;;;10.40;69.70;;;;;;5001980;28;20042;-81
2024/02/24 10:40:42;;;;;;;8.40;6.20;;;10.40;69.70;;;;;;4999586;28;20033;-82
2024/02/24 10:43:09;;;;;;;7.70;6.30;;;10.40;69.80;;;;;;5000636;28;20025;-81
2024/02/24 10:45:35;;;;;;;7.45;6.13;;;10.40;69.60;;;;;;4998853;28;20120;-82
2024/02/24 10:48:01;;;;;;;8.18;6.47;;;10.40;69.50;;;;;;5018164;28;20120;-82
2024/02/24 10:50:27;;;;;;;8.02;6.22;;;10.40;69.50;;;;;;5015538;28;20084;-82
2024/02/24 10:52:55;;;;;;;7.05;6.28;;;10.40;69.50;;;;;;4987413;28;20634;-82
2024/02/24 10:55:23;;;;;;;7.10;5.90;;;10.40;69.20;;;;;;5000379;28;20506;-82
2024/02/24 10:57:53;;;;;;;6.97;6.07;;;10.50;69.20;;;;;;5002238;28;20043;-81
2024/02/24 11:00:28;;;;;;;8.02;6.32;;;10.50;69.30;;;;;;5016016;28;20609;-82
2024/02/24 11:02:54;;;;;;;7.82;6.25;;;10.50;69.10;;;;;;4994474;28;20764;-83
2024/02/24 11:05:20;;;;;;;7.63;6.20;;;10.50;68.90;;;;;;5001075;28;20492;-83
2024/02/24 11:07:47;;;;;;;10.63;7.05;;;10.50;69.10;;;;;;4999302;28;20029;-82
2024/02/24 11:10:18;;;;;;;8.60;6.82;;;10.50;68.90;;;;;;5004364;28;20041;-82
2024/02/24 11:12:45;;;;;;;9.05;6.70;;;10.50;69.00;;;;;;4999297;28;20175;-82
2024/02/24 11:15:25;;;;;;;7.03;6.32;;;10.50;68.60;;;;;;5000741;28;20077;-82
2024/02/24 11:17:52;;;;;;;8.55;7.03;;;10.50;68.70;;;;;;5001388;28;20049;-81
2024/02/24 11:20:34;;;;;;;8.13;6.50;;;10.50;68.50;;;;;;5002169;28;20562;-82
2024/02/24 11:23:20;;;;;;;10.00;6.80;;;10.50;68.60;;;;;;5004881;28;20181;-81
2024/02/24 11:25:46;;;;;;;8.40;6.53;;;10.50;68.60;;;;;;5015031;28;20050;-81
2024/02/24 11:28:38;;;;;;;9.45;6.10;;;10.50;68.90;;;;;;5001511;28;20477;-81
2024/02/24 11:31:04;;;;;;;7.18;6.25;;;10.50;68.90;;;;;;5000531;28;20400;-81
2024/02/24 11:33:56;;;;;;;8.82;6.10;;;10.50;68.70;;;;;;5000417;28;20033;-83
2024/02/24 11:36:23;;;;;;;8.45;5.65;;;10.50;68.70;;;;;;5001538;28;20045;-82
2024/02/24 11:38:50;;;;;;;8.80;6.55;;;10.50;68.70;;;;;;5001322;28;20038;-82
2024/02/24 11:41:17;;;;;;;8.02;6.15;;;10.50;68.60;;;;;;5001355;28;20081;-83
2024/02/24 11:43:43;;;;;;;8.45;5.82;;;10.50;68.80;;;;;;4996745;28;20575;-81
2024/02/24 11:46:14;;;;;;;9.30;7.03;;;10.50;68.70;;;;;;5001238;28;20034;-82
2024/02/24 11:48:40;;;;;;;8.55;6.00;;;10.60;68.80;;;;;;4987361;28;20042;-83
2024/02/24 11:51:06;;;;;;;7.68;6.13;;;10.50;69.00;;;;;;4983476;28;20033;-81
2024/02/24 11:53:32;;;;;;;9.88;6.45;;;10.50;68.60;;;;;;4970932;28;20408;-82
2024/02/24 11:55:58;;;;;;;8.80;6.85;;;10.60;68.60;;;;;;5001176;28;20048;-83
2024/02/24 11:58:25;;;;;;;8.20;6.20;;;10.50;68.50;;;;;;5014698;28;20030;-83
2024/02/24 12:00:51;;;;;;;7.20;5.90;;;10.50;68.50;;;;;;5000285;28;20069;-83
2024/02/24 12:03:18;;;;;;;7.57;6.35;;;10.50;68.40;;;;;;4998190;28;21093;-82
2024/02/24 12:05:45;;;;;;;7.00;6.30;;;10.60;68.30;;;;;;5000233;28;20038;-82
2024/02/24 12:08:15;;;;;;;7.22;6.05;;;10.60;68.20;;;;;;5000823;28;20258;-81
2024/02/24 12:10:42;;;;;;;7.47;5.72;;;10.60;68.20;;;;;;5000012;28;20061;-81
2024/02/24 12:13:13;;;;;;;8.35;5.93;;;10.60;68.50;;;;;;5004066;28;20048;-82
2024/02/24 12:15:43;;;;;;;9.10;6.90;;;10.60;68.00;;;;;;5020955;28;20034;-81
2024/02/24 12:18:10;;;;;;;8.23;6.10;;;10.60;67.90;;;;;;5019728;28;20038;-81
2024/02/24 12:20:37;;;;;;;8.32;5.95;;;10.60;68.00;;;;;;5001550;28;20052;-83
2024/02/24 12:23:04;;;;;;;8.80;6.32;;;10.50;68.00;;;;;;5005821;28;20637;-81
2024/02/24 12:25:32;;;;;;;8.77;6.70;;;10.50;68.00;;;;;;5003252;28;20323;-82
2024/02/24 12:27:59;;;;;;;7.10;6.40;;;10.50;67.90;;;;;;5001305;28;20204;-81
2024/02/24 12:30:26;;;;;;;8.65;6.70;;;10.50;67.80;;;;;;5003489;28;20035;-81
2024/02/24 12:32:53;;;;;;;8.02;5.93;;;10.50;67.80;;;;;;5003181;28;20034;-82
2024/02/24 12:35:24;;;;;;;10.23;6.57;;;10.50;67.80;;;;;;5003059;28;20030;-81
2024/02/24 12:37:52;;;;;;;7.53;6.40;;;10.50;67.80;;;;;;5004824;28;20130;-81
2024/02/24 12:40:29;;;;;;;7.53;6.47;;;10.50;67.90;;;;;;5005440;28;20026;-82
2024/02/24 12:42:56;;;;;;;8.07;6.20;;;10.50;67.80;;;;;;5002190;28;20396;-82
2024/02/24 12:45:23;;;;;;;8.90;6.60;;;10.50;67.80;;;;;;5019923;28;20091;-82
2024/02/24 12:47:49;;;;;;;7.85;5.97;;;10.50;67.80;;;;;;5001619;28;20038;-81
2024/02/24 12:50:20;;;;;;;8.30;5.90;;;10.50;67.80;;;;;;4985756;28;20037;-82
2024/02/24 12:52:47;;;;;;;7.80;5.70;;;10.50;67.80;;;;;;5003772;28;20030;-82
2024/02/24 12:55:13;;;;;;;7.32;5.50;;;10.50;67.80;;;;;;5003844;28;20517;-82
2024/02/24 12:57:40;;;;;;;8.02;6.05;;;10.50;67.80;;;;;;5005417;28;20053;-82
2024/02/24 13:00:07;;;;;;;7.05;5.78;;;10.50;67.80;;;;;;5000670;28;20137;-81
2024/02/24 13:02:34;;;;;;;7.38;5.78;;;10.50;67.60;;;;;;4986139;28;20409;-81
2024/02/24 13:05:00;;;;;;;9.95;5.90;;;10.50;67.50;;;;;;5005480;28;20046;-81
2024/02/24 13:07:27;;;;;;;6.90;6.05;;;10.50;67.60;;;;;;5002516;28;20431;-81
2024/02/24 13:09:53;;;;;;;6.35;5.38;;;10.50;67.50;;;;;;5006054;28;20034;-81
2024/02/24 13:12:19;;;;;;;6.95;6.05;;;10.40;67.40;;;;;;5016841;28;20042;-82
2024/02/24 13:14:48;;;;;;;7.45;5.85;;;10.40;67.50;;;;;;5001170;28;20034;-82
2024/02/24 13:17:15;;;;;;;7.53;6.22;;;10.40;67.10;;;;;;5002479;28;20122;-81
2024/02/24 13:19:41;;;;;;;6.82;5.80;;;10.40;67.40;;;;;;5002874;28;20030;-82
2024/02/24 13:22:07;;;;;;;6.95;5.78;;;10.40;67.30;;;;;;5017929;28;20385;-81
2024/02/24 13:24:33;;;;;;;8.15;5.60;;;10.40;67.30;;;;;;5001079;28;20072;-81
2024/02/24 13:27:00;;;;;;;7.45;5.60;;;10.40;67.20;;;;;;5018586;28;20472;-82
2024/02/24 13:29:26;;;;;;;7.57;6.10;;;10.50;68.00;;;;;;5002506;28;20104;-81
2024/02/24 13:31:52;;;;;;;7.47;5.75;;;10.40;67.20;;;;;;5018362;28;20069;-82
2024/02/24 13:34:18;;;;;;;8.30;5.63;;;10.40;67.00;;;;;;5001324;28;20124;-82
2024/02/24 13:36:44;;;;;;;6.53;5.32;;;10.40;67.20;;;;;;5001582;28;20045;-81
2024/02/24 13:39:10;;;;;;;7.65;5.45;;;10.40;67.30;;;;;;4985056;28;20026;-81
2024/02/24 13:41:37;;;;;;;7.50;5.82;;;10.40;67.40;;;;;;5018097;28;20562;-82
2024/02/24 13:44:12;;;;;;;7.85;5.72;;;10.40;67.20;;;;;;5001427;28;20038;-81
2024/02/24 13:46:52;;;;;;;6.70;5.50;;;10.40;67.20;;;;;;4985806;28;20055;-82
2024/02/24 13:49:18;;;;;;;6.53;5.55;;;10.40;67.10;;;;;;5002190;28;20399;-82
2024/02/24 13:51:45;;;;;;;8.02;5.55;;;10.40;67.30;;;;;;4999625;28;20133;-81
2024/02/24 13:54:11;;;;;;;7.30;5.72;;;10.40;67.30;;;;;;5001040;28;20034;-81
2024/02/24 13:56:38;;;;;;;5.82;5.18;;;10.40;67.30;;;;;;5018857;28;20428;-82
2024/02/24 13:59:04;;;;;;;7.95;5.45;;;10.40;67.10;;;;;;5016407;28;20034;-82
2024/02/24 14:01:31;;;;;;;7.07;5.85;;;10.40;67.20;;;;;;4987719;28;20030;-81
2024/02/24 14:03:57;;;;;;;7.10;5.32;;;10.40;67.00;;;;;;5000848;28;20126;-82
2024/02/24 14:06:23;;;;;;;6.90;5.45;;;10.40;67.20;;;;;;4989029;28;20046;-82
2024/02/24 14:08:49;;;;;;;7.20;5.88;;;10.40;67.20;;;;;;5015282;28;20040;-82
2024/02/24 14:11:15;;;;;;;7.75;5.32;;;10.40;66.90;;;;;;5037737;28;20037;-82
2024/02/24 14:13:41;;;;;;;6.45;5.38;;;10.40;67.20;;;;;;5021797;28;20065;-82
2024/02/24 14:16:07;;;;;;;8.73;6.28;;;10.40;67.20;;;;;;5010930;28;20030;-82
2024/02/24 14:18:35;;;;;;;8.35;5.63;;;10.40;67.10;;;;;;5024915;28;20041;-82
2024/02/24 14:21:02;;;;;;;7.18;5.38;;;10.30;67.20;;;;;;5021086;28;20540;-82
2024/02/24 14:23:28;;;;;;;6.55;5.65;;;10.40;67.30;;;;;;5020938;28;20040;-82
2024/02/24 14:25:54;;;;;;;6.78;5.28;;;10.30;67.00;;;;;;5019700;28;20045;-82
2024/02/24 14:31:05;;;;;;;8.52;5.50;;;10.30;67.20;;;;;;5035483;28;20037;-82
2024/02/24 14:33:31;;;;;;;7.50;5.40;;;10.30;67.20;;;;;;4987191;28;20405;-82
2024/02/24 14:35:57;;;;;;;5.65;4.97;;;10.30;67.00;;;;;;5020240;28;20095;-82
2024/02/24 14:38:23;;;;;;;6.07;4.97;;;10.30;67.00;;;;;;5007974;28;20049;-82
2024/02/24 14:40:51;;;;;;;5.82;4.75;;;10.30;66.90;;;;;;5023138;28;20225;-82
2024/02/24 14:43:18;;;;;;;6.38;4.93;;;10.30;67.00;;;;;;5022414;28;20033;-82
2024/02/24 14:45:44;;;;;;;7.55;5.40;;;10.30;67.10;;;;;;5020386;28;20505;-81
2024/02/24 14:48:10;;;;;;;5.50;4.68;;;10.30;67.00;;;;;;5021921;28;20037;-82
2024/02/24 14:50:36;;;;;;;7.15;5.05;;;10.30;67.00;;;;;;5018839;28;20053;-81
2024/02/24 14:53:02;;;;;;;7.78;5.68;;;10.30;66.90;;;;;;5035789;28;20511;-82
2024/02/24 14:55:28;;;;;;;8.52;5.32;;;10.30;67.50;;;;;;5004535;28;20487;-82
2024/02/24 14:57:54;;;;;;;6.43;4.90;;;10.30;66.80;;;;;;5019676;28;20041;-82
2024/02/24 15:00:22;;;;;;;6.40;5.10;;;10.30;67.00;;;;;;5034507;28;20132;-81
2024/02/24 15:02:48;;;;;;;5.32;4.78;;;10.30;67.00;;;;;;5019328;28;20061;-81
2024/02/24 15:05:14;;;;;;;8.95;5.30;;;10.30;66.90;;;;;;5022466;28;20034;-81
2024/02/24 15:07:40;;;;;;;6.65;4.95;;;10.20;67.10;;;;;;5002004;28;20037;-81
2024/02/24 15:10:06;;;;;;;6.57;4.70;;;10.20;67.00;;;;;;5004676;28;20025;-82
2024/02/24 15:12:32;;;;;;;6.32;5.10;;;10.20;67.00;;;;;;5019290;28;20037;-82
2024/02/24 15:14:59;;;;;;;7.47;5.50;;;10.20;66.70;;;;;;5006581;28;20259;-81
2024/02/24 15:17:25;;;;;;;7.22;5.57;;;10.20;66.90;;;;;;5036647;28;20029;-81
2024/02/24 15:19:52;;;;;;;6.75;5.05;;;10.20;66.70;;;;;;5018841;28;20151;-82
2024/02/24 15:22:18;;;;;;;6.05;4.90;;;10.20;66.90;;;;;;5022739;28;20033;-81
2024/02/24 15:24:45;;;;;;;6.43;5.20;;;10.20;67.10;;;;;;5019742;28;20064;-81
2024/02/24 15:27:12;;;;;;;6.82;5.13;;;10.20;67.00;;;;;;5034123;28;20045;-82
2024/02/24 15:29:38;;;;;;;6.95;5.45;;;10.20;67.20;;;;;;5020661;28;21483;-81
2024/02/24 15:32:05;;;;;;;6.93;5.43;;;10.20;66.80;;;;;;5021507;28;20552;-81
2024/02/24 15:34:32;;;;;;;6.50;4.70;;;10.20;66.90;;;;;;5020488;28;20083;-81
2024/02/24 15:36:58;;;;;;;6.10;5.20;;;10.20;67.10;;;;;;5019804;28;20081;-81
2024/02/24 15:39:24;;;;;;;5.82;5.10;;;10.20;67.00;;;;;;5008448;28;20369;-81
2024/02/24 15:41:50;;;;;;;8.55;5.65;;;10.20;67.00;;;;;;5022789;28;20034;-82
2024/02/24 15:44:16;;;;;;;7.53;5.50;;;10.20;66.70;;;;;;5017507;28;20554;-82
2024/02/24 15:46:45;;;;;;;6.32;5.32;;;10.20;67.00;;;;;;5019868;28;20050;-81
2024/02/24 15:49:12;;;;;;;6.85;4.90;;;10.20;66.80;;;;;;5025200;28;20033;-82
2024/02/24 15:51:38;;;;;;;6.28;5.47;;;10.20;66.80;;;;;;5026963;28;20704;-82
2024/02/24 15:54:04;;;;;;;8.88;5.28;;;10.20;66.70;;;;;;5025093;28;20036;-82
2024/02/24 15:56:31;;;;;;;6.13;4.80;;;10.20;66.80;;;;;;5023165;28;20727;-81
2024/02/24 15:58:58;;;;;;;8.20;5.03;;;10.20;66.80;;;;;;5021818;28;20033;-81
2024/02/24 16:01:26;;;;;;;6.07;4.85;;;10.20;67.60;;;;;;5024070;28;20345;-81
2024/02/24 16:03:53;;;;;;;7.43;5.38;;;10.20;67.00;;;;;;5005867;28;20049;-82
2024/02/24 16:06:23;;;;;;;6.85;5.38;;;10.20;67.00;;;;;;5010185;28;20045;-81
2024/02/24 16:08:52;;;;;;;7.13;5.65;;;10.20;67.00;;;;;;5006333;28;20060;-82
2024/02/24 16:11:19;;;;;;;5.95;5.03;;;10.20;67.00;;;;;;5028000;28;20033;-81
2024/02/24 16:13:45;;;;;;;6.10;5.03;;;10.20;67.00;;;;;;5021524;28;20033;-81
2024/02/24 16:16:16;;;;;;;8.13;5.07;;;10.20;66.90;;;;;;5039808;28;20041;-81
2024/02/24 16:18:42;;;;;;;5.55;4.53;;;10.20;67.00;;;;;;5020966;28;20603;-82
2024/02/24 16:21:09;;;;;;;6.00;5.20;;;10.20;67.40;;;;;;5038878;28;20069;-82
2024/02/24 16:23:36;;;;;;;6.22;5.40;;;10.20;66.70;;;;;;5006641;28;20091;-82
2024/02/24 16:26:02;;;;;;;7.13;5.35;;;10.20;66.90;;;;;;5005399;28;20051;-81
2024/02/24 16:28:28;;;;;;;6.13;5.25;;;10.20;66.80;;;;;;5024399;28;20046;-81
2024/02/24 16:30:54;;;;;;;6.60;5.00;;;10.20;66.90;;;;;;5039457;28;20037;-82
2024/02/24 16:33:20;;;;;;;6.38;5.30;;;10.20;66.80;;;;;;5026003;28;20520;-83
2024/02/24 16:35:46;;;;;;;6.38;4.80;;;10.20;66.90;;;;;;5023621;28;20184;-81
2024/02/24 16:38:12;;;;;;;9.30;5.35;;;10.10;66.90;;;;;;5007661;28;20112;-81
2024/02/24 16:40:39;;;;;;;6.70;4.93;;;10.10;66.80;;;;;;5039660;28;20124;-82
2024/02/24 16:43:05;;;;;;;5.70;4.82;;;10.10;67.00;;;;;;5024169;28;20063;-83
2024/02/24 16:45:31;;;;;;;7.07;4.97;;;10.10;66.80;;;;;;5024055;28;20141;-82
2024/02/24 16:47:57;;;;;;;6.72;5.07;;;10.10;66.70;;;;;;5023165;28;20029;-82
2024/02/24 16:50:25;;;;;;;7.88;5.60;;;10.10;66.80;;;;;;5023863;28;20518;-82
2024/02/24 16:52:54;;;;;;;6.97;5.43;;;10.10;66.60;;;;;;5022358;28;20215;-82
2024/02/24 16:55:20;;;;;;;8.60;5.30;;;10.10;66.80;;;;;;5024127;28;20041;-84
2024/02/24 16:57:46;;;;;;;7.82;5.63;;;10.10;66.80;;;;;;5020455;28;20084;-82
2024/02/24 17:00:12;;;;;;;8.23;5.32;;;10.20;66.90;;;;;;5040502;28;20046;-82
2024/02/24 17:02:38;;;;;;;6.03;4.85;;;10.20;67.00;;;;;;5026445;28;20048;-81
2024/02/24 17:05:10;;;;;;;5.93;4.93;;;10.10;66.90;;;;;;5020523;28;20045;-81
2024/02/24 17:07:36;;;;;;;8.85;5.47;;;10.20;66.90;;;;;;5022325;28;20029;-81
2024/02/24 17:10:02;;;;;;;6.95;5.25;;;10.10;66.90;;;;;;5022236;28;20039;-81
2024/02/24 17:12:30;;;;;;;6.95;5.10;;;10.20;66.70;;;;;;5025807;28;20029;-83
2024/02/24 17:14:56;;;;;;;7.10;5.00;;;10.10;66.90;;;;;;5021231;28;20040;-83
2024/02/24 17:17:22;;;;;;;7.72;5.53;;;10.10;66.80;;;;;;5021528;28;20042;-80
2024/02/24 17:19:48;;;;;;;8.05;5.35;;;10.10;66.70;;;;;;5022243;28;20040;-82
2024/02/24 17:22:15;;;;;;;6.95;5.50;;;10.10;66.90;;;;;;5023135;28;20510;-82
2024/02/24 17:24:41;;;;;;;6.28;5.40;;;10.20;66.80;;;;;;5004070;28;20034;-82
2024/02/24 17:27:07;;;;;;;7.25;5.53;;;10.10;66.90;;;;;;5022683;28;20041;-82
2024/02/24 17:29:34;;;;;;;7.60;5.30;;;10.20;66.90;;;;;;5021324;28;20041;-82
2024/02/24 17:32:00;;;;;;;8.27;5.43;;;10.20;66.80;;;;;;5021607;28;20130;-82
2024/02/24 17:34:26;;;;;;;7.60;5.60;;;10.10;66.70;;;;;;5024094;28;20112;-83
2024/02/24 17:36:52;;;;;;;7.40;5.82;;;10.10;66.80;;;;;;5038151;28;20364;-83
2024/02/24 17:39:20;;;;;;;6.78;5.38;;;10.10;66.70;;;;;;5008889;28;20084;-83
2024/02/24 17:41:47;;;;;;;6.97;5.47;;;10.20;66.70;;;;;;5022529;28;20030;-82
2024/02/24 17:44:13;;;;;;;9.05;5.65;;;10.10;66.80;;;;;;5021519;28;20032;-83
2024/02/24 17:46:39;;;;;;;7.50;5.57;;;10.20;66.80;;;;;;5021579;28;20136;-82
2024/02/24 17:49:06;;;;;;;7.57;5.82;;;10.20;66.70;;;;;;5010433;28;20124;-83
2024/02/24 17:51:32;;;;;;;7.57;5.93;;;10.10;66.80;;;;;;5021419;28;20546;-83
2024/02/24 17:53:59;;;;;;;7.82;5.43;;;10.10;66.80;;;;;;5020997;28;20041;-82
2024/02/24 17:56:27;;;;;;;7.35;5.85;;;10.20;66.90;;;;;;5022985;28;20064;-81
2024/02/24 17:58:53;;;;;;;8.73;5.65;;;10.10;66.80;;;;;;5021630;28;20068;-82
2024/02/24 18:01:19;;;;;;;7.22;5.38;;;10.20;67.10;;;;;;5019400;28;20033;-80
2024/02/24 18:03:45;;;;;;;7.57;5.55;;;10.10;66.80;;;;;;5024764;28;20029;-81
2024/02/24 18:06:11;;;;;;;6.47;5.57;;;10.20;66.90;;;;;;5037430;28;20578;-83
2024/02/24 18:08:37;;;;;;;7.35;5.72;;;10.20;67.70;;;;;;5022620;28;20045;-81
2024/02/24 18:11:03;;;;;;;7.65;6.18;;;10.10;66.80;;;;;;5020496;28;20029;-81
2024/02/24 18:13:30;;;;;;;7.25;5.65;;;10.10;66.80;;;;;;5019770;28;20026;-82
2024/02/24 18:15:56;;;;;;;7.65;6.00;;;10.10;66.80;;;;;;5038922;28;20049;-82
2024/02/24 18:18:22;;;;;;;7.45;5.97;;;10.10;66.80;;;;;;5023782;23;20123;-90
2024/02/24 18:20:48;;;;;;;8.52;5.60;;;10.10;66.60;;;;;;4921704;29;20082;-93
2024/02/24 18:23:14;;;;;;;7.22;5.60;;;10.20;66.70;;;;;;4939866;29;20044;-91
2024/02/24 18:25:40;;;;;;;6.97;5.60;;;10.10;66.70;;;;;;4923394;28;20063;-90
2024/02/24 18:28:07;;;;;;;7.63;5.25;;;10.10;66.70;;;;;;4966839;28;20035;-91
2024/02/24 18:30:33;;;;;;;5.72;4.75;;;10.10;66.80;;;;;;4945295;28;20089;-93
2024/02/24 18:33:00;;;;;;;7.00;5.40;;;10.10;66.90;;;;;;4938910;28;20039;-90
2024/02/24 18:35:26;;;;;;;8.30;5.88;;;10.20;66.80;;;;;;4973526;28;20027;-90
2024/02/24 18:37:52;;;;;;;9.68;6.03;;;10.10;66.80;;;;;;4950698;28;20501;-91
2024/02/24 18:40:18;;;;;;;8.18;5.97;;;10.10;67.00;;;;;;4926616;28;20043;-89
2024/02/24 18:42:45;;;;;;;5.88;4.90;;;10.10;66.80;;;;;;4930732;28;20082;-93
2024/02/24 18:45:12;;;;;;;7.63;6.00;;;10.10;66.70;;;;;;4950325;28;20055;-92
2024/02/24 18:47:38;;;;;;;8.70;5.78;;;10.20;66.90;;;;;;4957801;28;20077;-92
2024/02/24 18:50:05;;;;;;;6.03;5.07;;;10.10;66.70;;;;;;4968980;28;20038;-93
2024/02/24 18:52:31;;;;;;;8.10;5.85;;;10.20;66.70;;;;;;4953011;28;20509;-91
2024/02/24 18:54:57;;;;;;;9.77;5.80;;;10.10;66.70;;;;;;4939175;28;20035;-93
2024/02/24 18:57:23;;;;;;;7.22;5.30;;;10.10;66.80;;;;;;4957364;28;20094;-89
2024/02/24 18:59:49;;;;;;;7.22;5.47;;;10.10;66.70;;;;;;4955399;28;20039;-93
2024/02/24 19:02:16;;;;;;;7.63;5.40;;;10.20;66.80;;;;;;4950821;28;20039;-92
2024/02/24 19:04:45;;;;;;;6.78;4.88;;;10.10;66.60;;;;;;4937184;28;20070;-92
2024/02/24 19:07:13;;;;;;;8.00;5.50;;;10.20;66.80;;;;;;4950960;28;20039;-92
2024/02/24 19:09:40;;;;;;;7.82;4.85;;;10.20;66.70;;;;;;4933975;28;20202;-91
2024/02/24 19:12:06;;;;;;;7.15;4.72;;;10.20;66.60;;;;;;4936496;28;20041;-92
2024/02/24 19:14:32;;;;;;;7.55;5.03;;;10.10;66.70;;;;;;4951906;28;20093;-92
2024/02/24 19:16:59;;;;;;;7.65;5.05;;;10.10;66.60;;;;;;4934716;28;20035;-90
2024/02/24 19:19:25;;;;;;;7.55;5.22;;;10.10;66.90;;;;;;4931147;28;20037;-93
2024/02/24 19:24:35;;;;;;;7.88;4.82;;;10.20;66.70;;;;;;4962507;28;20047;-91
2024/02/24 19:27:01;;;;;;;5.75;4.38;;;10.10;66.80;;;;;;4949300;28;20437;-91
2024/02/24 19:29:46;;;;;;;4.93;4.28;;;10.10;66.70;;;;;;4953379;28;20039;-92
2024/02/24 19:32:12;;;;;;;6.78;5.00;;;10.10;66.60;;;;;;4934587;28;20046;-91
2024/02/24 19:34:38;;;;;;;6.35;4.40;;;10.10;66.50;;;;;;4951541;28;20043;-91
2024/02/24 19:37:08;;;;;;;5.85;4.70;;;10.10;66.40;;;;;;4950252;28;20045;-93
2024/02/24 19:39:35;;;;;;;6.43;4.38;;;10.20;66.40;;;;;;4928777;28;20038;-87
2024/02/24 19:42:01;;;;;;;6.22;4.30;;;10.20;66.40;;;;;;4948770;28;20063;-93
2024/02/24 19:44:28;;;;;;;5.82;4.15;;;10.20;66.50;;;;;;4950231;28;20124;-87
2024/02/24 19:46:54;;;;;;;4.45;3.50;;;10.20;66.80;;;;;;4935554;28;20031;-84
2024/02/24 19:49:20;;;;;;;5.50;4.05;;;10.20;67.20;;;;;;4930407;28;20051;-84
2024/02/24 19:51:46;;;;;;;4.97;4.03;;;10.30;66.90;;;;;;4946929;28;20038;-90
2024/02/24 19:54:12;;;;;;;6.47;4.13;;;10.30;66.90;;;;;;4935914;28;20040;-83
2024/02/24 19:56:38;;;;;;;9.55;4.45;;;10.30;67.00;;;;;;4913806;29;20040;-83
2024/02/24 19:59:04;;;;;;;8.00;4.97;;;10.30;67.20;;;;;;4940925;28;20032;-82
2024/02/24 20:01:31;;;;;;;5.57;4.18;;;10.20;67.30;;;;;;4948071;28;20031;-79
2024/02/24 20:03:57;;;;;;;7.93;4.55;;;10.20;67.40;;;;;;4961852;28;20031;-78
2024/02/24 20:06:23;;;;;;;6.30;4.25;;;10.30;67.50;;;;;;4960521;28;20038;-82
2024/02/24 20:08:50;;;;;;;5.32;4.18;;;10.30;67.70;;;;;;4942871;28;20123;-86
2024/02/24 20:11:17;;;;;;;7.60;4.40;;;10.20;67.70;;;;;;4968515;28;20035;-84
2024/02/24 20:13:43;;;;;;;8.48;4.57;;;10.30;67.70;;;;;;4947883;28;20036;-84
2024/02/24 20:16:10;;;;;;;6.55;4.30;;;10.20;67.90;;;;;;4970930;28;20054;-83